Time;durP1;ratioP1;P1;durP2;ratioP2;P2;SDS_P1;SDS_P2;PMS_P1;PMS_P2;Temp;Humidity;BMP_temperature;BMP_pressure;BME280_temperature;BME280_humidity;BME280_pressure;Samples;Min_cycle;Max_cycle;Signal;HPM_P1;HPM_P2
2023/04/02 00:00:47;;;;;;;12.70;6.80;;;;;;;7.36;83.42;97528.52;105335;1262;61820;-21
2023/04/02 00:03:20;;;;;;;9.00;7.30;;;;;;;7.00;83.31;97529.23;105381;1260;74569;-21
2023/04/02 00:05:50;;;;;;;10.60;8.40;;;;;;;6.57;83.41;97525.63;105580;1260;75858;-21
2023/04/02 00:08:22;;;;;;;13.20;9.20;;;;;;;6.17;83.66;97528.65;105531;1263;73763;-21
2023/04/02 00:10:56;;;;;;;5.80;4.10;;;;;;;5.88;84.37;97531.45;105335;1264;63399;-21
2023/04/02 00:13:28;;;;;;;6.70;5.20;;;;;;;6.29;84.59;97531.05;105232;1265;62303;-21
2023/04/02 00:15:57;;;;;;;8.50;6.60;;;;;;;6.76;83.65;97528.23;105641;1260;74531;-21
2023/04/02 00:18:26;;;;;;;8.80;7.20;;;;;;;6.79;83.35;97526.79;105651;1260;76483;-21
2023/04/02 00:21:08;;;;;;;8.30;6.10;;;;;;;6.57;83.12;97530.33;105654;1259;74200;-21
2023/04/02 00:23:41;;;;;;;11.60;6.70;;;;;;;6.22;83.53;97537.13;105647;1260;61468;-22
2023/04/02 00:26:22;;;;;;;8.60;6.80;;;;;;;5.90;84.05;97535.25;105691;1260;61849;-21
2023/04/02 00:28:51;;;;;;;6.20;4.70;;;;;;;5.62;84.92;97535.02;105681;1260;74528;-21
2023/04/02 00:31:23;;;;;;;6.50;5.60;;;;;;;6.07;84.96;97536.38;105649;1258;75839;-21
2023/04/02 00:33:52;;;;;;;7.50;6.10;;;;;;;6.56;83.24;97533.67;105638;1260;74316;-21
2023/04/02 00:36:20;;;;;;;5.90;5.30;;;;;;;6.58;82.31;97535.04;105497;1260;61992;-21
2023/04/02 00:38:52;;;;;;;8.30;6.60;;;;;;;6.27;81.63;97537.61;105424;1260;61574;-23
2023/04/02 00:41:22;;;;;;;10.00;7.20;;;;;;;5.87;82.16;97534.95;105463;1258;74852;-21
2023/04/02 00:43:59;;;;;;;17.80;10.90;;;;;;;5.48;82.20;97534.30;105548;1262;75868;-21
2023/04/02 00:46:30;;;;;;;26.40;15.50;;;;;;;5.05;82.52;97534.89;105516;1260;73869;-21
2023/04/02 00:49:09;;;;;;;14.20;7.90;;;;;;;4.73;84.30;97535.51;105434;1260;62744;-21
2023/04/02 00:51:41;;;;;;;25.80;13.10;;;;;;;5.18;84.71;97533.34;105406;1257;61580;-21
2023/04/02 00:54:14;;;;;;;27.60;15.30;;;;;;;5.67;83.29;97534.80;105502;1260;74877;-21
2023/04/02 00:56:45;;;;;;;30.20;15.90;;;;;;;5.68;82.58;97538.67;105413;1262;74856;-21
2023/04/02 00:59:27;;;;;;;21.40;12.60;;;;;;;5.44;82.32;97537.19;105482;1260;74965;-21
2023/04/02 01:02:17;;;;;;;20.30;11.50;;;;;;;5.07;82.35;97534.23;105379;1260;61801;-21
2023/04/02 01:05:01;;;;;;;15.50;7.60;;;;;;;4.71;82.77;97535.30;105553;1260;61166;-21
2023/04/02 01:07:49;;;;;;;10.20;6.20;;;;;;;4.37;83.22;97535.07;105512;1260;75069;-22
2023/04/02 01:10:26;;;;;;;5.00;3.80;;;;;;;4.12;83.77;97533.64;105664;1259;75770;-21
2023/04/02 01:13:08;;;;;;;5.40;4.50;;;;;;;4.66;83.38;97533.30;105672;1260;72702;-21
2023/04/02 01:15:41;;;;;;;6.90;5.20;;;;;;;5.10;81.16;97534.33;105367;1255;61918;-21
2023/04/02 01:18:12;;;;;;;13.20;7.90;;;;;;;5.00;80.75;97536.21;105272;1263;61843;-21
2023/04/02 01:20:47;;;;;;;20.80;14.20;;;;;;;4.70;81.07;97538.99;105404;1263;73579;-21
2023/04/02 01:23:34;;;;;;;29.70;20.10;;;;;;;4.29;81.67;97544.27;105522;1260;75750;-21
2023/04/02 01:26:03;;;;;;;27.10;17.20;;;;;;;3.89;82.77;97545.51;105329;1260;74491;-21
2023/04/02 01:29:00;;;;;;;23.60;15.70;;;;;;;3.65;83.90;97546.31;105650;1260;61182;-21
2023/04/02 01:31:29;;;;;;;13.40;8.60;;;;;;;3.52;84.98;97548.17;105629;1255;61626;-22
2023/04/02 01:33:59;;;;;;;17.10;10.70;;;;;;;4.21;85.38;97543.06;105700;1259;73679;-21
2023/04/02 01:36:34;;;;;;;15.90;11.00;;;;;;;4.82;83.68;97547.08;105486;1262;75772;-21
2023/04/02 01:39:19;;;;;;;24.90;13.20;;;;;;;4.87;82.70;97553.60;105121;1262;74542;-21
2023/04/02 01:41:56;;;;;;;26.00;15.10;;;;;;;4.54;82.99;97556.27;105160;1271;61260;-21
2023/04/02 01:44:31;;;;;;;20.70;12.40;;;;;;;4.17;84.10;97558.10;105430;1258;61058;-21
2023/04/02 01:47:02;;;;;;;16.30;11.20;;;;;;;3.86;85.12;97563.59;105471;1262;73399;-22
2023/04/02 01:49:31;;;;;;;12.20;7.00;;;;;;;3.69;86.17;97561.28;105378;1260;75574;-21
2023/04/02 01:52:00;;;;;;;9.00;6.10;;;;;;;4.21;86.42;97564.30;105587;1257;73167;-21
2023/04/02 01:54:32;;;;;;;13.90;8.20;;;;;;;4.62;85.23;97559.88;105626;1257;61654;-21
2023/04/02 01:57:00;;;;;;;10.40;6.50;;;;;;;4.59;84.83;97564.45;105618;1260;61908;-21
2023/04/02 01:59:32;;;;;;;7.70;6.00;;;;;;;4.33;85.21;97568.05;105243;1262;75235;-21
2023/04/02 02:02:04;;;;;;;7.60;5.20;;;;;;;4.03;86.07;97572.60;105265;1270;75631;-21
2023/04/02 02:04:34;;;;;;;4.90;3.10;;;;;;;3.80;86.80;97573.52;105371;1262;73252;-21
2023/04/02 02:07:03;;;;;;;6.40;4.60;;;;;;;4.20;86.80;97578.36;105519;1260;61222;-21
2023/04/02 02:09:33;;;;;;;7.60;5.50;;;;;;;4.69;85.46;97574.63;105493;1258;61767;-21
2023/04/02 02:12:02;;;;;;;5.70;4.40;;;;;;;4.74;84.59;97578.72;105396;1260;75364;-21
2023/04/02 02:14:30;;;;;;;7.50;5.00;;;;;;;4.48;83.94;97577.90;105271;1263;75639;-21
2023/04/02 02:17:01;;;;;;;8.60;5.60;;;;;;;4.12;84.08;97585.44;105448;1256;73987;-21
2023/04/02 02:19:51;;;;;;;6.80;5.20;;;;;;;3.81;84.61;97586.00;105302;1259;61919;-21
2023/04/02 02:22:33;;;;;;;4.80;2.70;;;;;;;3.61;85.46;97593.63;105592;1255;61157;-21
2023/04/02 02:25:09;;;;;;;4.80;4.00;;;;;;;4.21;85.58;97594.38;105249;1260;74306;-21
2023/04/02 02:27:51;;;;;;;5.80;4.10;;;;;;;4.70;84.13;97592.23;105566;1260;75861;-21
2023/04/02 02:30:23;;;;;;;4.70;4.10;;;;;;;4.67;83.50;97596.13;105558;1263;74120;-21
2023/04/02 02:33:06;;;;;;;5.60;4.40;;;;;;;4.44;83.62;97595.15;105580;1262;61115;-21
2023/04/02 02:35:59;;;;;;;5.10;4.40;;;;;;;4.13;84.12;97594.69;105436;1257;61148;-21
2023/04/02 02:38:40;;;;;;;5.50;4.70;;;;;;;3.77;84.60;97600.51;105540;1259;75298;-21
2023/04/02 02:41:35;;;;;;;3.60;2.60;;;;;;;3.54;85.52;97603.48;105390;1259;75794;-22
2023/04/02 02:44:07;;;;;;;5.50;3.60;;;;;;;4.17;85.43;97596.92;105273;1257;74185;-21
2023/04/02 02:46:42;;;;;;;6.90;5.00;;;;;;;4.66;84.10;97597.88;105404;1260;62028;-21
2023/04/02 02:49:20;;;;;;;5.20;3.60;;;;;;;4.67;83.56;97596.45;105203;1260;61808;-21
2023/04/02 02:51:56;;;;;;;5.30;4.30;;;;;;;4.44;83.64;97593.96;105470;1257;75303;-21
2023/04/02 02:54:29;;;;;;;9.20;5.10;;;;;;;4.13;83.91;97603.28;105437;1257;75298;-21
2023/04/02 02:57:01;;;;;;;6.80;4.80;;;;;;;3.88;84.47;97602.59;105487;1257;73139;-21
2023/04/02 02:59:30;;;;;;;4.30;2.80;;;;;;;3.64;84.90;97607.35;105191;1262;63033;-21
2023/04/02 03:01:59;;;;;;;5.60;4.00;;;;;;;3.98;85.25;97607.67;105350;1260;61496;-21
2023/04/02 03:04:34;;;;;;;5.60;4.10;;;;;;;4.41;84.32;97614.98;105461;1257;75379;-21
2023/04/02 03:07:05;;;;;;;6.20;4.40;;;;;;;4.40;83.50;97609.59;105340;1257;75863;-21
2023/04/02 03:10:04;;;;;;;7.50;4.60;;;;;;;4.17;83.69;97611.91;105162;1260;74144;-23
2023/04/02 03:12:41;;;;;;;4.80;4.20;;;;;;;3.87;84.19;97612.14;105519;1257;61640;-21
2023/04/02 03:15:18;;;;;;;4.90;4.00;;;;;;;3.62;84.52;97611.10;105241;1263;61889;-22
2023/04/02 03:18:00;;;;;;;4.20;3.00;;;;;;;3.39;84.92;97609.21;105278;1259;75400;-21
2023/04/02 03:20:36;;;;;;;2.60;2.30;;;;;;;3.89;84.92;97620.89;105385;1257;75827;-21
2023/04/02 03:23:29;;;;;;;3.80;3.40;;;;;;;4.40;83.56;97623.65;105543;1260;74838;-21
2023/04/02 03:26:07;;;;;;;3.50;3.20;;;;;;;4.30;82.60;97624.77;105669;1260;61746;-21
2023/04/02 03:28:40;;;;;;;5.70;4.00;;;;;;;4.01;82.67;97630.09;105630;1260;61793;-21
2023/04/02 03:31:35;;;;;;;4.80;4.20;;;;;;;3.73;83.20;97632.77;105509;1261;74263;-22
2023/04/02 03:34:12;;;;;;;5.90;5.20;;;;;;;3.35;83.58;97628.85;105213;1263;76008;-24
2023/04/02 03:37:13;;;;;;;4.50;3.50;;;;;;;3.14;84.61;97625.98;105270;1262;74533;-21
2023/04/02 03:40:24;;;;;;;5.20;3.90;;;;;;;3.66;84.42;97626.74;105636;1256;61149;-21
2023/04/02 03:43:03;;;;;;;6.40;4.90;;;;;;;4.12;82.89;97628.56;105443;1256;60956;-21
2023/04/02 03:45:35;;;;;;;4.30;3.80;;;;;;;4.00;82.51;97630.68;105573;1257;75308;-21
2023/04/02 03:48:15;;;;;;;;;;;;;;;3.70;82.52;97634.87;105522;1262;75787;-21
2023/04/02 03:51:05;;;;;;;2.90;2.40;;;;;;;3.28;83.13;97639.71;105292;1257;73145;-21
2023/04/02 03:53:33;;;;;;;4.30;3.10;;;;;;;2.80;84.61;97639.39;105395;1260;61199;-21
2023/04/02 03:56:04;;;;;;;4.20;2.20;;;;;;;2.60;86.09;97641.17;105523;1260;61850;-21
2023/04/02 03:58:47;;;;;;;5.70;3.60;;;;;;;3.14;86.18;97638.64;105215;1270;74090;-21
2023/04/02 04:01:27;;;;;;;3.30;2.70;;;;;;;3.67;83.93;97640.56;105483;1257;75804;-21
2023/04/02 04:04:16;;;;;;;3.10;2.50;;;;;;;3.49;82.58;97642.60;105286;1263;73227;-21
2023/04/02 04:06:45;;;;;;;4.20;2.60;;;;;;;3.14;83.32;97641.58;105302;1258;61383;-22
2023/04/02 04:09:29;;;;;;;3.60;2.70;;;;;;;2.85;84.70;97644.86;105555;1261;61623;-21
2023/04/02 04:12:12;;;;;;;3.90;3.10;;;;;;;2.53;85.32;97642.13;105628;1260;74136;-21
2023/04/02 04:14:48;;;;;;;2.80;1.80;;;;;;;2.35;86.22;97642.05;105562;1258;75894;-21
2023/04/02 04:17:50;;;;;;;3.20;2.50;;;;;;;2.93;85.76;97646.38;105292;1257;72966;-21
2023/04/02 04:20:28;;;;;;;4.60;3.60;;;;;;;3.49;83.81;97650.63;105390;1260;61663;-21
2023/04/02 04:23:10;;;;;;;7.70;3.30;;;;;;;3.49;83.44;97649.11;105313;1256;61164;-21
2023/04/02 04:25:39;;;;;;;4.80;3.40;;;;;;;3.36;84.00;97651.13;105219;1258;75346;-21
2023/04/02 04:28:26;;;;;;;4.80;3.50;;;;;;;3.20;84.52;97649.40;105435;1260;75829;-21
2023/04/02 04:31:03;;;;;;;4.20;3.60;;;;;;;3.02;85.07;97650.48;105367;1255;73562;-21
2023/04/02 04:33:42;;;;;;;2.70;1.90;;;;;;;2.91;85.43;97662.09;105550;1257;63162;-22
2023/04/02 04:36:26;;;;;;;10.20;3.20;;;;;;;3.50;84.97;97666.91;105382;1254;61605;-21
2023/04/02 04:39:13;;;;;;;5.40;3.40;;;;;;;3.98;83.11;97672.55;105416;1257;75379;-21
2023/04/02 04:41:45;;;;;;;5.10;3.00;;;;;;;4.09;83.49;97677.30;105257;1257;74964;-21
2023/04/02 04:44:22;;;;;;;4.20;3.30;;;;;;;3.98;83.30;97674.85;105273;1258;74194;-21
2023/04/02 04:47:06;;;;;;;10.10;4.80;;;;;;;3.72;83.47;97672.80;105515;1260;61786;-21
2023/04/02 04:49:44;;;;;;;8.00;4.80;;;;;;;3.52;84.32;97676.52;105394;1256;61690;-21
2023/04/02 04:52:28;;;;;;;6.20;2.90;;;;;;;3.44;85.19;97673.30;105197;1257;75115;-21
2023/04/02 04:54:57;;;;;;;4.20;3.00;;;;;;;4.15;85.40;97672.34;105132;1258;75617;-21
2023/04/02 04:57:35;;;;;;;6.40;4.60;;;;;;;4.85;83.40;97671.90;105492;1258;74204;-21
2023/04/02 05:00:50;;;;;;;6.30;4.20;;;;;;;4.94;82.30;97673.73;105529;1257;61922;-21
2023/04/02 05:03:38;;;;;;;7.80;5.20;;;;;;;4.80;82.61;97679.33;105622;1260;61766;-21
2023/04/02 05:06:14;;;;;;;8.60;6.50;;;;;;;4.60;83.06;97686.89;105535;1262;75340;-21
2023/04/02 05:08:45;;;;;;;7.60;5.30;;;;;;;4.43;83.72;97691.50;105436;1258;75796;-20
2023/04/02 05:11:26;;;;;;;4.40;2.50;;;;;;;4.30;84.04;97694.05;105132;1260;74199;-21
2023/04/02 05:14:07;;;;;;;9.00;3.60;;;;;;;4.82;83.75;97694.62;105609;1257;61841;-21
2023/04/02 05:16:38;;;;;;;7.30;4.40;;;;;;;5.36;81.83;97695.71;105547;1263;61828;-21
2023/04/02 05:20:23;;;;;;;4.60;3.70;;;;;;;5.42;81.51;97699.69;102597;1293;601194;-20
2023/04/02 05:23:07;;;;;;;4.70;3.60;;;;;;;5.33;81.76;97698.70;104874;1266;61846;-20
2023/04/02 05:25:36;;;;;;;5.80;3.40;;;;;;;5.13;81.75;97698.72;104847;1271;61569;-21
2023/04/02 05:28:16;;;;;;;5.70;3.50;;;;;;;5.01;82.27;97697.14;104884;1266;72897;-22
2023/04/02 05:31:04;;;;;;;2.80;2.20;;;;;;;4.96;82.81;97700.43;104730;1266;75662;-21
2023/04/02 05:33:34;;;;;;;3.60;2.10;;;;;;;5.61;81.98;97701.77;103331;1263;2055700;-22
2023/04/02 05:36:10;;;;;;;7.10;3.40;;;;;;;6.13;80.34;97701.44;105065;1263;61116;-21
2023/04/02 05:38:47;;;;;;;4.60;2.80;;;;;;;6.16;79.38;97704.48;105175;1267;61140;-22
2023/04/02 05:41:31;;;;;;;3.70;3.00;;;;;;;5.90;79.76;97706.04;104877;1272;73722;-22
2023/04/02 05:44:15;;;;;;;7.50;3.80;;;;;;;5.66;80.96;97706.70;105008;1264;75919;-22
2023/04/02 05:46:56;;;;;;;5.10;4.10;;;;;;;5.44;82.19;97707.42;104779;1267;74276;-22
2023/04/02 05:49:38;;;;;;;6.20;3.30;;;;;;;5.37;83.30;97710.89;104860;1264;62516;-22
2023/04/02 05:52:12;;;;;;;6.90;3.80;;;;;;;6.17;83.42;97715.02;105095;1267;61872;-22
2023/04/02 05:54:54;;;;;;;5.20;3.90;;;;;;;6.97;81.20;97721.65;104814;1264;74671;-22
2023/04/02 05:57:29;;;;;;;6.30;3.30;;;;;;;7.25;79.98;97725.23;104770;1264;75889;-22
2023/04/02 06:00:24;;;;;;;4.90;3.80;;;;;;;7.31;79.65;97724.12;104740;1264;74251;-22
2023/04/02 06:03:36;;;;;;;9.60;3.50;;;;;;;7.22;79.13;97727.95;104732;1264;61848;-23
2023/04/02 06:06:31;;;;;;;3.20;2.90;;;;;;;7.14;80.14;97729.15;104884;1268;61681;-22
2023/04/02 06:09:07;;;;;;;4.10;2.60;;;;;;;7.10;80.16;97730.92;104709;1267;73750;-22
2023/04/02 06:11:41;;;;;;;5.20;3.60;;;;;;;7.67;79.01;97728.84;104778;1269;75434;-22
2023/04/02 06:14:11;;;;;;;5.80;4.50;;;;;;;8.08;76.73;97735.11;104734;1264;73871;-22
2023/04/02 06:16:40;;;;;;;7.00;5.10;;;;;;;7.69;77.10;97738.98;104921;1269;61160;-23
2023/04/02 06:19:36;;;;;;;6.60;5.00;;;;;;;7.25;79.29;97739.27;105181;1269;62104;-23
2023/04/02 06:22:36;;;;;;;2.80;2.50;;;;;;;6.75;82.26;97741.54;105160;1268;74558;-23
2023/04/02 06:25:15;;;;;;;4.70;2.30;;;;;;;6.08;85.97;97748.05;105033;1267;75872;-23
2023/04/02 06:27:45;;;;;;;3.20;2.90;;;;;;;5.75;88.14;97748.52;104989;1264;73378;-22
2023/04/02 06:30:22;;;;;;;3.00;2.50;;;;;;;6.34;88.03;97749.83;104845;1264;61890;-23
2023/04/02 06:32:52;;;;;;;4.30;2.70;;;;;;;6.79;86.11;97745.52;104829;1264;61177;-23
2023/04/02 06:35:21;;;;;;;3.30;2.90;;;;;;;6.99;86.35;97747.56;105009;1266;74555;-22
2023/04/02 06:37:59;;;;;;;3.30;2.90;;;;;;;7.06;85.83;97746.52;104907;1264;74676;-22
2023/04/02 06:40:52;;;;;;;3.20;2.90;;;;;;;7.02;86.12;97742.32;104731;1267;72903;-22
2023/04/02 06:43:38;;;;;;;5.30;2.30;;;;;;;7.16;86.29;97744.33;104889;1264;63637;-22
2023/04/02 06:46:39;;;;;;;4.00;3.60;;;;;;;7.80;84.84;97742.55;104833;1267;61811;-22
2023/04/02 06:49:37;;;;;;;3.70;3.40;;;;;;;7.72;83.74;97747.17;105093;1264;74268;-23
2023/04/02 06:52:35;;;;;;;3.40;2.80;;;;;;;7.76;85.48;97749.26;105022;1264;75773;-22
2023/04/02 06:55:27;;;;;;;3.60;3.30;;;;;;;7.62;86.49;97754.19;105126;1264;74266;-22
2023/04/02 06:57:56;;;;;;;4.00;3.30;;;;;;;7.69;86.64;97760.81;105098;1263;63684;-22
2023/04/02 07:00:31;;;;;;;4.60;3.30;;;;;;;8.07;86.06;97762.02;105116;1267;61890;-22
2023/04/02 07:03:22;;;;;;;4.60;4.10;;;;;;;8.65;83.98;97767.63;105172;1266;75451;-22
2023/04/02 07:05:53;;;;;;;7.00;4.70;;;;;;;8.69;83.83;97769.19;105114;1260;74727;-22
2023/04/02 07:08:22;;;;;;;4.70;3.90;;;;;;;8.61;84.51;97773.04;105212;1265;72348;-22
2023/04/02 07:10:50;;;;;;;6.60;4.80;;;;;;;8.39;86.34;97775.58;105065;1261;61359;-22
2023/04/02 07:13:23;;;;;;;4.40;3.60;;;;;;;8.24;87.67;97777.53;105100;1266;61896;-22
2023/04/02 07:15:53;;;;;;;;;;;;;;;8.70;86.95;97782.39;105110;1263;74328;-22
2023/04/02 07:18:26;;;;;;;9.90;5.60;;;;;;;9.15;85.39;97785.75;105231;1266;75684;-22
2023/04/02 07:20:55;;;;;;;6.20;5.20;;;;;;;9.22;83.78;97786.63;105062;1263;73242;-22
2023/04/02 07:23:24;;;;;;;7.20;5.40;;;;;;;9.20;83.73;97786.50;105039;1260;61894;-22
2023/04/02 07:25:54;;;;;;;7.90;6.30;;;;;;;9.05;84.40;97787.92;105024;1266;61527;-22
2023/04/02 07:28:24;;;;;;;8.50;6.20;;;;;;;8.89;85.55;97789.23;105084;1265;74571;-22
2023/04/02 07:30:53;;;;;;;6.00;4.80;;;;;;;9.16;85.93;97793.53;105256;1266;75832;-22
2023/04/02 07:33:24;;;;;;;6.00;4.80;;;;;;;9.99;84.00;97798.46;105272;1263;74103;-22
2023/04/02 07:35:53;;;;;;;6.20;4.70;;;;;;;10.29;81.61;97802.14;105049;1263;61803;-22
2023/04/02 07:38:23;;;;;;;8.50;7.10;;;;;;;9.91;81.55;97805.48;105056;1261;61183;-22
2023/04/02 07:40:51;;;;;;;7.70;6.10;;;;;;;9.53;83.15;97805.87;105156;1263;74540;-22
2023/04/02 07:43:23;;;;;;;8.40;6.80;;;;;;;9.70;82.56;97808.82;105075;1263;75736;-22
2023/04/02 07:45:52;;;;;;;8.30;6.80;;;;;;;9.63;81.76;97809.60;105172;1264;74281;-22
2023/04/02 07:48:22;;;;;;;5.90;4.80;;;;;;;9.48;83.08;97808.75;105216;1264;63668;-22
2023/04/02 07:50:50;;;;;;;6.50;4.90;;;;;;;9.87;82.23;97805.52;105271;1263;61776;-22
2023/04/02 07:53:30;;;;;;;8.90;7.80;;;;;;;10.29;80.74;97798.80;105248;1262;74606;-22
2023/04/02 07:56:02;;;;;;;7.80;5.60;;;;;;;10.08;80.61;97802.60;105124;1263;76041;-22
2023/04/02 07:58:32;;;;;;;7.80;6.40;;;;;;;10.30;81.23;97799.96;105194;1263;74153;-21
2023/04/02 08:01:04;;;;;;;10.60;8.00;;;;;;;9.96;82.28;97803.27;105157;1264;61892;-21
2023/04/02 08:03:35;;;;;;;10.40;8.20;;;;;;;9.96;83.73;97801.72;105194;1265;61881;-21
2023/04/02 08:06:05;;;;;;;9.40;6.10;;;;;;;9.68;83.93;97806.20;105106;1264;74847;-21
2023/04/02 08:08:34;;;;;;;10.70;6.70;;;;;;;10.22;82.98;97803.13;105303;1262;75896;-22
2023/04/02 08:11:03;;;;;;;13.00;7.90;;;;;;;10.70;78.92;97798.42;105278;1257;74000;-22
2023/04/02 08:13:33;;;;;;;9.40;7.10;;;;;;;10.67;79.80;97804.13;105396;1258;61933;-22
2023/04/02 08:16:02;;;;;;;10.60;8.00;;;;;;;10.85;80.83;97802.42;105605;1257;61293;-21
2023/04/02 08:18:30;;;;;;;11.00;9.00;;;;;;;10.58;79.72;97806.38;105209;1261;73356;-22
2023/04/02 08:20:59;;;;;;;10.90;8.30;;;;;;;10.64;80.33;97803.19;105314;1258;75770;-21
2023/04/02 08:23:28;;;;;;;14.90;9.70;;;;;;;10.50;79.91;97806.31;105260;1257;74058;-21
2023/04/02 08:25:56;;;;;;;8.00;5.50;;;;;;;10.38;82.64;97806.06;105416;1257;62515;-22
2023/04/02 08:28:25;;;;;;;7.80;6.10;;;;;;;10.85;80.55;97805.90;105389;1261;61724;-21
2023/04/02 08:30:55;;;;;;;9.10;6.70;;;;;;;11.27;78.43;97806.78;105580;1257;74096;-21
2023/04/02 08:33:25;;;;;;;9.40;6.80;;;;;;;11.77;76.61;97804.56;105445;1262;75804;-22
2023/04/02 08:35:53;;;;;;;9.20;6.90;;;;;;;11.52;76.85;97806.30;105337;1263;74324;-21
2023/04/02 08:38:22;;;;;;;9.40;7.90;;;;;;;11.66;77.25;97807.66;105310;1257;61953;-21
2023/04/02 08:40:52;;;;;;;11.40;8.40;;;;;;;11.76;76.72;97808.79;105193;1258;61122;-21
2023/04/02 08:44:01;;;;;;;9.40;8.10;;;;;;;12.13;75.24;97808.98;105149;1257;74633;-21
2023/04/02 08:46:47;;;;;;;11.50;8.00;;;;;;;12.27;73.97;97812.14;105333;1257;75690;-21
2023/04/02 08:49:44;;;;;;;14.50;11.10;;;;;;;12.41;75.11;97814.32;105224;1264;74202;-21
2023/04/02 08:52:42;;;;;;;10.00;8.00;;;;;;;11.73;76.88;97818.36;105499;1257;61960;-22
2023/04/02 08:55:33;;;;;;;8.30;6.00;;;;;;;11.95;75.81;97821.00;105330;1263;62045;-21
2023/04/02 08:58:23;;;;;;;8.70;7.30;;;;;;;13.06;73.83;97820.50;105434;1262;74328;-21
2023/04/02 09:00:54;;;;;;;7.90;6.70;;;;;;;13.86;71.41;97821.52;105534;1257;75780;-23
2023/04/02 09:03:22;;;;;;;14.90;9.40;;;;;;;14.17;70.16;97817.05;105294;1264;74041;-24
2023/04/02 09:05:53;;;;;;;11.40;8.70;;;;;;;13.80;68.13;97822.52;105469;1257;61984;-23
2023/04/02 09:08:24;;;;;;;12.80;10.20;;;;;;;13.92;68.78;97825.40;105501;1257;61836;-23
2023/04/02 09:11:05;;;;;;;9.10;7.80;;;;;;;13.89;68.92;97823.26;105298;1265;74525;-22
2023/04/02 09:13:45;;;;;;;12.00;8.70;;;;;;;14.27;68.46;97817.30;105130;1264;75829;-23
2023/04/02 09:16:16;;;;;;;9.00;7.90;;;;;;;14.41;67.60;97819.25;105312;1257;74223;-23
2023/04/02 09:18:46;;;;;;;11.10;9.30;;;;;;;14.72;67.00;97819.58;105417;1262;61182;-21
2023/04/02 09:21:30;;;;;;;8.70;7.60;;;;;;;14.82;67.35;97824.38;105471;1263;61627;-22
2023/04/02 09:23:59;;;;;;;10.40;8.00;;;;;;;14.94;66.66;97824.38;105312;1257;74588;-23
2023/04/02 09:26:30;;;;;;;10.80;7.40;;;;;;;14.61;65.56;97826.45;105555;1262;75698;-21
2023/04/02 09:29:28;;;;;;;9.40;6.70;;;;;;;14.24;66.03;97830.45;105280;1265;74180;-21
2023/04/02 09:32:26;;;;;;;9.20;7.10;;;;;;;14.16;66.58;97832.08;105520;1258;61464;-21
2023/04/02 09:35:14;;;;;;;7.90;6.30;;;;;;;14.49;65.92;97831.77;105197;1257;61237;-21
2023/04/02 09:38:06;;;;;;;9.50;7.10;;;;;;;14.60;65.76;97833.56;105266;1263;74298;-22
2023/04/02 09:40:50;;;;;;;10.20;7.30;;;;;;;14.63;65.20;97832.94;105316;1257;75791;-22
2023/04/02 09:43:23;;;;;;;11.00;8.60;;;;;;;14.00;65.60;97837.47;105487;1263;74134;-22
2023/04/02 09:45:55;;;;;;;;;;;;;;;12.87;69.86;97836.46;105393;1263;61955;-22
2023/04/02 09:48:31;;;;;;;9.00;7.30;;;;;;;13.46;69.06;97842.15;105565;1258;61381;-22
2023/04/02 09:51:07;;;;;;;8.30;7.40;;;;;;;13.80;67.52;97843.11;105305;1266;75313;-22
2023/04/02 09:53:44;;;;;;;8.90;7.60;;;;;;;13.96;67.99;97843.19;105452;1257;74616;-22
2023/04/02 09:56:13;;;;;;;8.20;7.20;;;;;;;14.24;65.89;97847.39;105484;1263;74193;-21
2023/04/02 09:58:43;;;;;;;10.80;7.80;;;;;;;14.35;64.05;97843.30;105368;1258;62093;-21
2023/04/02 10:01:28;;;;;;;8.50;6.90;;;;;;;14.28;64.74;97843.06;105300;1260;61931;-21
2023/04/02 10:03:58;;;;;;;8.60;7.30;;;;;;;14.92;63.82;97841.15;105270;1262;73183;-21
2023/04/02 10:06:27;;;;;;;8.80;6.70;;;;;;;15.50;63.86;97837.60;105146;1257;74959;-21
2023/04/02 10:08:56;;;;;;;11.10;8.90;;;;;;;15.88;60.90;97838.77;105253;1257;74197;-21
2023/04/02 10:11:33;;;;;;;11.00;8.70;;;;;;;15.77;61.79;97842.27;105153;1257;61941;-22
2023/04/02 10:14:28;;;;;;;8.80;7.50;;;;;;;14.91;61.53;97842.25;105281;1263;61728;-21
2023/04/02 10:17:00;;;;;;;11.00;8.70;;;;;;;15.73;61.95;97842.64;105267;1257;75262;-22
2023/04/02 10:19:58;;;;;;;12.40;9.60;;;;;;;15.73;60.56;97843.95;105429;1257;74855;-22
2023/04/02 10:22:27;;;;;;;23.60;15.10;;;;;;;15.35;61.06;97845.80;105490;1257;74767;-22
2023/04/02 10:24:57;;;;;;;9.30;7.90;;;;;;;15.66;62.19;97845.17;105489;1257;61122;-22
2023/04/02 10:27:37;;;;;;;10.20;7.60;;;;;;;16.23;59.35;97847.77;105301;1260;61183;-23
2023/04/02 10:30:41;;;;;;;7.50;6.40;;;;;;;16.46;58.73;97847.98;105474;1257;75518;-23
2023/04/02 10:33:29;;;;;;;8.50;6.30;;;;;;;16.09;58.14;97844.90;105529;1257;75005;-23
2023/04/02 10:36:15;;;;;;;11.20;7.80;;;;;;;16.46;58.29;97849.10;105285;1257;72905;-23
2023/04/02 10:38:52;;;;;;;11.80;8.50;;;;;;;16.14;57.61;97852.95;105457;1257;61880;-23
2023/04/02 10:41:44;;;;;;;11.70;7.70;;;;;;;16.30;58.39;97853.35;105094;1266;61662;-24
2023/04/02 10:44:19;;;;;;;7.80;6.40;;;;;;;15.52;58.83;97853.35;105381;1263;74381;-23
2023/04/02 10:47:07;;;;;;;9.00;6.80;;;;;;;15.06;59.03;97854.80;105226;1265;75912;-23
2023/04/02 10:49:54;;;;;;;10.30;8.40;;;;;;;15.46;59.44;97852.48;105462;1258;74173;-23
2023/04/02 10:52:27;;;;;;;7.80;6.80;;;;;;;15.78;57.38;97848.39;105376;1262;61887;-23
2023/04/02 10:55:01;;;;;;;8.20;6.30;;;;;;;16.34;57.43;97850.08;105307;1258;61880;-23
2023/04/02 10:57:32;;;;;;;9.10;6.80;;;;;;;16.01;56.43;97854.02;105437;1257;75305;-23
2023/04/02 11:00:11;;;;;;;7.40;5.40;;;;;;;16.05;57.43;97855.16;105191;1260;75880;-23
2023/04/02 11:03:01;;;;;;;7.90;6.50;;;;;;;15.88;56.00;97860.18;105146;1257;73823;-23
2023/04/02 11:05:43;;;;;;;7.70;6.70;;;;;;;15.72;57.69;97861.62;105250;1262;61821;-23
2023/04/02 11:08:20;;;;;;;6.00;5.40;;;;;;;16.11;55.32;97862.44;105268;1263;61823;-23
2023/04/02 11:10:53;;;;;;;7.80;6.40;;;;;;;16.24;55.27;97864.02;105346;1257;75241;-24
2023/04/02 11:13:51;;;;;;;7.60;5.90;;;;;;;16.25;55.06;97862.70;105446;1257;75726;-23
2023/04/02 11:16:20;;;;;;;6.70;4.90;;;;;;;15.76;57.03;97862.55;105379;1258;74296;-23
2023/04/02 11:19:13;;;;;;;9.60;5.70;;;;;;;15.49;57.47;97860.48;105252;1259;61948;-23
2023/04/02 11:21:54;;;;;;;6.50;5.40;;;;;;;15.47;56.25;97863.58;105532;1263;62256;-23
2023/04/02 11:24:29;;;;;;;7.10;5.20;;;;;;;15.16;56.88;97865.55;105549;1263;74093;-23
2023/04/02 11:27:03;;;;;;;8.40;5.60;;;;;;;14.94;57.84;97869.09;105650;1263;74902;-23
2023/04/02 11:29:33;;;;;;;5.50;4.30;;;;;;;14.96;58.24;97865.71;105431;1257;73868;-23
2023/04/02 11:32:14;;;;;;;8.80;6.10;;;;;;;14.75;59.31;97869.17;105407;1257;61682;-23
2023/04/02 11:34:43;;;;;;;9.00;6.70;;;;;;;14.84;58.49;97870.52;105553;1259;61786;-23
2023/04/02 11:37:42;;;;;;;7.10;5.40;;;;;;;14.99;57.63;97870.82;105653;1254;75107;-23
2023/04/02 11:40:12;;;;;;;8.10;5.70;;;;;;;14.83;58.46;97871.08;105642;1254;75610;-23
2023/04/02 11:42:45;;;;;;;9.30;7.00;;;;;;;14.82;59.85;97870.04;105852;1258;73334;-23
2023/04/02 11:45:23;;;;;;;6.90;6.00;;;;;;;14.52;58.49;97871.73;105754;1259;62010;-23
2023/04/02 11:48:02;;;;;;;8.70;7.00;;;;;;;14.35;59.86;97871.89;105709;1259;61719;-23
2023/04/02 11:50:32;;;;;;;6.90;5.50;;;;;;;14.50;59.10;97868.63;105732;1254;75542;-23
2023/04/02 11:53:05;;;;;;;6.10;5.00;;;;;;;14.72;61.32;97873.62;105801;1257;75880;-23
2023/04/02 11:55:34;;;;;;;7.20;5.10;;;;;;;14.63;60.57;97877.42;105604;1259;73456;-23
2023/04/02 11:58:10;;;;;;;6.60;5.40;;;;;;;14.50;58.17;97880.30;105333;1254;61609;-23
2023/04/02 12:01:00;;;;;;;7.40;5.10;;;;;;;14.33;57.78;97875.08;105631;1254;61816;-24
2023/04/02 12:03:42;;;;;;;10.00;7.00;;;;;;;14.45;59.62;97878.22;105614;1254;75441;-25
2023/04/02 12:06:38;;;;;;;7.70;5.80;;;;;;;14.39;57.78;97878.64;105605;1254;75835;-24
2023/04/02 12:09:41;;;;;;;6.60;4.70;;;;;;;14.40;60.59;97879.16;105438;1254;74221;-24
2023/04/02 12:12:31;;;;;;;6.20;4.40;;;;;;;14.31;60.78;97875.12;105685;1255;61394;-24
2023/04/02 12:14:59;;;;;;;7.00;5.20;;;;;;;14.14;61.63;97872.74;105734;1258;61833;-24
2023/04/02 12:17:36;;;;;;;9.30;6.10;;;;;;;14.03;61.71;97878.33;105902;1257;75338;-24
2023/04/02 12:20:08;;;;;;;17.80;11.00;;;;;;;14.29;60.01;97877.17;105687;1259;75842;-24